createdAt,value
2024-03-05T00:01:16.661Z,3.36
2024-03-05T00:03:44.086Z,3.26
2024-03-05T00:06:12.147Z,3.31
2024-03-05T00:08:39.265Z,3.16
2024-03-05T00:11:06.638Z,3.29
2024-03-05T00:13:35.479Z,3.55
2024-03-05T00:16:05.533Z,3.40
2024-03-05T00:18:32.592Z,3.44
2024-03-05T00:21:00.035Z,3.41
2024-03-05T00:23:27.237Z,3.42
2024-03-05T00:25:54.545Z,3.40
2024-03-05T00:28:21.877Z,3.33
2024-03-05T00:30:50.632Z,3.53
2024-03-05T00:33:17.868Z,3.93
2024-03-05T00:35:45.825Z,3.84
2024-03-05T00:38:18.669Z,3.56
2024-03-05T00:40:52.909Z,3.43
2024-03-05T00:43:20.239Z,3.54
2024-03-05T00:45:47.568Z,3.38
2024-03-05T00:48:16.307Z,3.37
2024-03-05T00:50:43.811Z,3.37
2024-03-05T00:53:10.963Z,3.37
2024-03-05T00:55:38.598Z,3.49
2024-03-05T00:58:05.837Z,3.33
2024-03-05T01:00:33.909Z,3.30
2024-03-05T01:03:01.045Z,3.38
2024-03-05T01:05:29.544Z,3.41
2024-03-05T01:07:57.164Z,3.35
2024-03-05T01:10:24.346Z,3.42
2024-03-05T01:12:52.099Z,3.30
2024-03-05T01:15:19.096Z,3.37
2024-03-05T01:17:46.225Z,3.40
2024-03-05T01:20:17.063Z,3.43
2024-03-05T01:22:47.708Z,3.37
2024-03-05T01:25:18.024Z,3.56
2024-03-05T01:27:45.273Z,3.61
2024-03-05T01:30:14.799Z,3.80
2024-03-05T01:32:44.761Z,3.81
2024-03-05T01:35:14.134Z,3.88
2024-03-05T01:37:41.595Z,3.84
2024-03-05T01:40:11.152Z,3.96
2024-03-05T01:42:39.234Z,4.12
2024-03-05T01:45:07.926Z,3.95
2024-03-05T01:47:35.217Z,4.02
2024-03-05T01:50:04.967Z,4.07
2024-03-05T01:52:33.193Z,4.26
2024-03-05T01:55:11.189Z,4.44
2024-03-05T01:57:41.085Z,4.40
2024-03-05T02:00:16.438Z,4.59
2024-03-05T02:02:45.284Z,4.60
2024-03-05T02:05:13.943Z,4.67
2024-03-05T02:07:42.123Z,4.84
2024-03-05T02:10:10.697Z,4.85
2024-03-05T02:12:41.891Z,4.80
2024-03-05T02:15:13.016Z,4.54
2024-03-05T02:17:40.836Z,4.48
2024-03-05T02:20:11.215Z,4.39
2024-03-05T02:22:39.960Z,4.48
2024-03-05T02:25:08.605Z,4.39
2024-03-05T02:27:38.184Z,4.33
2024-03-05T02:30:11.575Z,4.39
2024-03-05T02:32:42.066Z,4.52
2024-03-05T02:35:10.607Z,4.79
2024-03-05T02:37:40.250Z,5.04
2024-03-05T02:40:09.848Z,5.03
2024-03-05T02:42:37.266Z,4.76
2024-03-05T02:45:08.943Z,4.69
2024-03-05T02:47:43.156Z,4.63
2024-03-05T02:50:12.256Z,4.50
2024-03-05T02:52:42.099Z,4.48
2024-03-05T02:55:10.965Z,4.32
2024-03-05T02:57:40.289Z,4.27
2024-03-05T03:00:20.162Z,4.46
2024-03-05T03:02:49.576Z,4.38
2024-03-05T03:05:17.640Z,4.26
2024-03-05T03:07:46.230Z,4.29
2024-03-05T03:10:13.785Z,4.17
2024-03-05T03:12:41.970Z,4.25
2024-03-05T03:15:10.052Z,4.22
2024-03-05T03:17:43.678Z,4.22
2024-03-05T03:20:16.815Z,4.25
2024-03-05T03:22:46.230Z,4.14
2024-03-05T03:25:14.311Z,4.08
2024-03-05T03:27:41.850Z,4.15
2024-03-05T03:30:19.125Z,4.09
2024-03-05T03:32:47.387Z,3.95
2024-03-05T03:35:15.558Z,3.90
2024-03-05T03:37:43.355Z,3.91
2024-03-05T03:40:22.016Z,3.89
2024-03-05T03:42:52.172Z,3.99
2024-03-05T03:45:20.366Z,3.86
2024-03-05T03:47:47.923Z,3.73
2024-03-05T03:50:15.924Z,3.92
2024-03-05T03:52:45.097Z,4.18
2024-03-05T03:55:14.228Z,4.27
2024-03-05T03:57:42.644Z,4.24
2024-03-05T04:00:18.415Z,4.02
2024-03-05T04:02:47.845Z,3.79
2024-03-05T04:05:15.361Z,3.87
2024-03-05T04:07:42.566Z,4.11
2024-03-05T04:10:13.250Z,4.26
2024-03-05T04:12:41.942Z,4.36
2024-03-05T04:15:10.539Z,4.55
2024-03-05T04:17:38.152Z,4.77
2024-03-05T04:20:09.780Z,4.79
2024-03-05T04:22:38.901Z,4.98
2024-03-05T04:25:07.477Z,5.01
2024-03-05T04:27:36.695Z,5.12
2024-03-05T04:30:11.794Z,5.22
2024-03-05T04:32:42.109Z,5.14
2024-03-05T04:35:12.490Z,5.25
2024-03-05T04:37:41.179Z,5.49
2024-03-05T04:40:14.145Z,5.42
2024-03-05T04:42:41.241Z,5.33
2024-03-05T04:45:10.552Z,5.54
2024-03-05T04:47:38.191Z,5.63
2024-03-05T04:50:07.559Z,5.67
2024-03-05T04:52:34.901Z,5.44
2024-03-05T04:55:02.748Z,4.76
2024-03-05T04:57:30.810Z,4.49
2024-03-05T04:59:59.153Z,4.74
2024-03-05T05:02:27.562Z,5.02
2024-03-05T05:04:54.658Z,5.01
2024-03-05T05:07:25.159Z,4.70
2024-03-05T05:09:52.392Z,4.76
2024-03-05T05:12:19.463Z,4.58
2024-03-05T05:14:46.541Z,4.17
2024-03-05T05:17:14.804Z,4.38
2024-03-05T05:19:43.411Z,4.68
2024-03-05T05:22:10.616Z,4.87
2024-03-05T05:24:38.048Z,4.87
2024-03-05T05:27:05.713Z,4.91
2024-03-05T05:29:40.434Z,4.62
2024-03-05T05:32:09.657Z,4.86
2024-03-05T05:34:37.492Z,4.96
2024-03-05T05:37:06.492Z,4.95
2024-03-05T05:39:34.485Z,4.78
2024-03-05T05:42:01.941Z,4.37
2024-03-05T05:44:30.461Z,4.17
2024-03-05T05:46:57.922Z,4.53
2024-03-05T05:49:25.321Z,4.14
2024-03-05T06:12:12.098Z,4.99
2024-03-05T06:14:39.426Z,5.06
2024-03-05T06:17:06.724Z,5.05
2024-03-05T06:19:34.254Z,5.06
2024-03-05T06:22:01.765Z,4.90
2024-03-05T06:24:29.688Z,5.30
2024-03-05T06:26:57.221Z,5.55
2024-03-05T06:29:25.653Z,5.59
2024-03-05T06:31:52.896Z,5.44
2024-03-05T06:34:20.313Z,5.65
2024-03-05T06:36:49.745Z,5.85
2024-03-05T06:39:21.105Z,5.96
2024-03-05T06:41:49.194Z,6.07
2024-03-05T06:44:21.226Z,6.20
2024-03-05T06:46:51.107Z,6.10
2024-03-05T06:49:28.067Z,6.29
2024-03-05T06:52:15.381Z,6.28
2024-03-05T06:55:01.386Z,6.21
2024-03-05T06:57:28.891Z,6.08
2024-03-05T06:59:56.514Z,6.25
2024-03-05T07:02:28.345Z,6.32
2024-03-05T07:04:55.799Z,6.18
2024-03-05T07:07:23.517Z,6.07
2024-03-05T07:09:50.770Z,5.86
2024-03-05T07:12:17.947Z,5.93
2024-03-05T07:14:45.449Z,5.82
2024-03-05T07:17:12.548Z,5.99
2024-03-05T07:19:41.385Z,6.02
2024-03-05T07:22:08.875Z,6.16
2024-03-05T07:24:36.853Z,6.25
2024-03-05T07:27:08.996Z,6.03
2024-03-05T07:29:36.804Z,6.03
2024-03-05T07:32:04.625Z,6.21
2024-03-05T07:34:32.606Z,6.43
2024-03-05T07:37:01.282Z,6.57
2024-03-05T07:39:28.565Z,6.69
2024-03-05T07:41:55.620Z,6.74
2024-03-05T07:44:22.697Z,6.66
2024-03-05T07:46:49.982Z,6.77
2024-03-05T07:49:17.153Z,6.71
2024-03-05T07:51:45.617Z,6.97
2024-03-05T07:54:15.216Z,7.09
2024-03-05T07:56:44.221Z,7.13
2024-03-05T07:59:11.958Z,6.97
2024-03-05T08:01:39.154Z,6.82
2024-03-05T08:04:06.972Z,6.97
2024-03-05T08:06:34.500Z,6.76
2024-03-05T08:09:01.653Z,6.79
2024-03-05T08:11:30.133Z,6.87
2024-03-05T08:13:57.247Z,6.80
2024-03-05T08:16:24.322Z,6.97
2024-03-05T08:18:51.548Z,7.11
2024-03-05T08:21:18.557Z,7.34
2024-03-05T08:23:45.642Z,7.10
2024-03-05T08:26:12.938Z,7.19
2024-03-05T08:28:41.473Z,7.32
2024-03-05T08:31:11.560Z,7.54
2024-03-05T08:33:38.719Z,7.66
2024-03-05T08:36:07.902Z,7.61
2024-03-05T08:38:35.114Z,7.76
2024-03-05T08:41:02.857Z,7.47
2024-03-05T08:43:31.653Z,7.35
2024-03-05T08:46:00.156Z,7.49
2024-03-05T08:48:28.754Z,7.29
2024-03-05T08:50:56.028Z,7.11
2024-03-05T08:53:23.312Z,6.57
2024-03-05T08:55:50.686Z,6.96
2024-03-05T08:58:17.974Z,7.20
2024-03-05T09:00:46.092Z,7.28
2024-03-05T09:03:14.919Z,7.30
2024-03-05T09:05:45.296Z,7.47
2024-03-05T09:08:15.085Z,7.05
2024-03-05T09:10:42.423Z,6.83
2024-03-05T09:13:10.062Z,6.98
2024-03-05T09:15:41.572Z,6.91
2024-03-05T09:18:14.126Z,6.96
2024-03-05T09:20:43.833Z,7.02
2024-03-05T09:23:11.391Z,7.11
2024-03-05T09:25:42.598Z,7.20
2024-03-05T09:28:10.572Z,6.74
2024-03-05T09:30:38.852Z,6.70
2024-03-05T09:33:10.633Z,7.03
2024-03-05T09:35:38.649Z,6.95
2024-03-05T09:38:08.485Z,6.96
2024-03-05T09:40:36.265Z,7.13
2024-03-05T09:43:05.718Z,7.36
2024-03-05T09:45:37.902Z,7.02
2024-03-05T09:48:09.131Z,7.04
2024-03-05T09:50:38.104Z,6.42
2024-03-05T09:53:06.948Z,6.44
2024-03-05T09:55:34.288Z,6.03
2024-03-05T09:58:07.801Z,6.48
2024-03-05T10:00:38.524Z,6.82
2024-03-05T10:03:09.666Z,7.00
2024-03-05T10:05:38.394Z,7.16
2024-03-05T10:08:08.090Z,7.39
2024-03-05T10:10:35.802Z,7.26
2024-03-05T10:13:03.232Z,7.33
2024-03-05T10:15:30.563Z,7.19
2024-03-05T10:17:58.622Z,7.01
2024-03-05T10:20:28.276Z,7.11
2024-03-05T10:23:01.315Z,7.18
2024-03-05T10:25:36.958Z,7.39
2024-03-05T10:28:14.147Z,7.42
2024-03-05T10:30:44.259Z,7.35
2024-03-05T10:33:13.843Z,7.37
2024-03-05T10:35:43.091Z,7.29
2024-03-05T10:38:15.337Z,7.27
2024-03-05T10:40:46.352Z,7.02
2024-03-05T10:43:19.630Z,7.09
2024-03-05T10:45:48.622Z,7.12
2024-03-05T10:48:19.963Z,7.04
2024-03-05T10:50:51.254Z,7.12
2024-03-05T10:53:20.516Z,7.16
2024-03-05T10:55:54.328Z,6.77
2024-03-05T10:58:41.654Z,6.79
2024-03-05T11:01:14.552Z,7.28
2024-03-05T11:03:42.248Z,7.46
2024-03-05T11:06:10.404Z,7.64
2024-03-05T11:08:38.379Z,7.77
2024-03-05T11:11:11.258Z,8.10
2024-03-05T11:13:42.001Z,8.05
2024-03-05T11:16:10.522Z,8.07
2024-03-05T11:18:39.499Z,8.34
2024-03-05T11:21:10.581Z,7.80
2024-03-05T11:23:43.007Z,8.07
2024-03-05T11:26:19.524Z,7.78
2024-03-05T11:28:47.369Z,7.55
2024-03-05T11:31:20.987Z,7.70
2024-03-05T11:34:00.206Z,7.85
2024-03-05T11:36:27.445Z,8.03
2024-03-05T11:39:05.706Z,8.02
2024-03-05T11:41:36.988Z,8.09
2024-03-05T11:44:05.264Z,7.93
2024-03-05T11:46:47.144Z,7.90
2024-03-05T11:49:16.045Z,7.88
2024-03-05T11:51:45.598Z,7.74
2024-03-05T11:54:15.784Z,7.62
2024-03-05T11:56:57.457Z,7.90
2024-03-05T11:59:34.350Z,8.01
2024-03-05T12:02:02.523Z,7.94
2024-03-05T12:04:30.627Z,7.68
2024-03-05T12:07:18.699Z,7.93
2024-03-05T12:09:46.014Z,7.74
2024-03-05T12:12:17.500Z,7.99
2024-03-05T12:14:56.375Z,7.93
2024-03-05T12:17:25.956Z,7.82
2024-03-05T12:19:58.936Z,7.68
2024-03-05T12:22:26.894Z,7.15
2024-03-05T12:24:54.591Z,7.08
2024-03-05T12:27:23.766Z,6.26
2024-03-05T12:29:53.257Z,6.15
2024-03-05T12:32:21.317Z,5.85
2024-03-05T12:34:49.726Z,6.05
2024-03-05T12:37:18.370Z,6.10
2024-03-05T12:39:45.664Z,6.20
2024-03-05T12:42:21.767Z,6.17
2024-03-05T12:44:50.243Z,6.03
2024-03-05T12:47:18.206Z,6.10
2024-03-05T12:49:48.492Z,5.94
2024-03-05T12:54:57.482Z,6.08
2024-03-05T12:57:25.561Z,6.35
2024-03-05T12:59:54.439Z,6.42
2024-03-05T13:02:21.583Z,6.70
2024-03-05T13:04:48.822Z,6.75
2024-03-05T13:07:16.139Z,7.02
2024-03-05T13:09:43.344Z,7.01
2024-03-05T13:12:10.874Z,7.01
2024-03-05T13:14:38.070Z,6.99
2024-03-05T13:17:08.249Z,7.19
2024-03-05T13:19:35.529Z,7.81
2024-03-05T13:22:02.842Z,8.47
2024-03-05T13:24:30.331Z,8.09
2024-03-05T13:27:01.179Z,8.36
2024-03-05T13:29:28.274Z,8.90
2024-03-05T13:31:55.551Z,9.14
2024-03-05T13:34:24.320Z,9.71
2024-03-05T13:36:51.730Z,9.49
2024-03-05T13:39:23.581Z,9.64
2024-03-05T13:41:55.490Z,9.46
2024-03-05T13:44:23.996Z,9.36
2024-03-05T13:46:51.872Z,9.48
2024-03-05T13:49:21.914Z,9.68
2024-03-05T13:51:50.661Z,9.12
2024-03-05T13:54:20.262Z,9.80
2024-03-05T13:56:49.672Z,9.42
2024-03-05T13:59:17.187Z,8.67
2024-03-05T14:01:44.784Z,9.38
2024-03-05T14:04:12.071Z,9.88
2024-03-05T14:06:39.704Z,9.86
2024-03-05T14:09:12.124Z,9.15
2024-03-05T14:11:42.563Z,9.69
2024-03-05T14:14:10.201Z,9.13
2024-03-05T14:16:39.570Z,8.78
2024-03-05T14:19:07.006Z,8.91
2024-03-05T14:21:36.897Z,9.01
2024-03-05T14:24:05.091Z,8.80
2024-03-05T14:26:34.125Z,8.91
2024-03-05T14:29:05.154Z,8.38
2024-03-05T14:31:34.431Z,8.00
2024-03-05T14:34:01.813Z,7.47
2024-03-05T14:36:29.097Z,7.60
2024-03-05T14:38:56.631Z,7.57
2024-03-05T14:41:23.805Z,7.53
2024-03-05T14:43:52.238Z,7.37
2024-03-05T14:46:19.623Z,7.33
2024-03-05T14:48:46.721Z,7.34
2024-03-05T14:51:14.848Z,7.10
2024-03-05T14:53:42.112Z,7.04
2024-03-05T14:56:09.708Z,6.84
2024-03-05T14:58:38.108Z,6.88
2024-03-05T15:01:06.732Z,6.76
2024-03-05T15:03:33.922Z,6.81
2024-03-05T15:06:03.525Z,6.59
2024-03-05T15:08:30.796Z,6.59
2024-03-05T15:11:02.563Z,6.45
2024-03-05T15:13:29.835Z,6.63
2024-03-05T15:15:57.413Z,6.83
2024-03-05T15:18:25.871Z,6.80
2024-03-05T15:20:53.200Z,6.73
2024-03-05T15:23:20.624Z,6.53
2024-03-05T15:25:48.746Z,6.52
2024-03-05T15:28:15.895Z,6.56
2024-03-05T15:30:44.368Z,6.42
2024-03-05T15:33:12.859Z,6.44
2024-03-05T15:35:41.563Z,6.48
2024-03-05T15:38:09.303Z,6.57
2024-03-05T15:40:38.897Z,6.66
2024-03-05T15:43:08.354Z,6.60
2024-03-05T15:45:39.040Z,6.52
2024-03-05T15:48:10.914Z,6.42
2024-03-05T15:50:40.119Z,6.23
2024-03-05T15:53:09.337Z,6.22
2024-03-05T15:55:40.198Z,6.13
2024-03-05T15:58:07.591Z,6.08
2024-03-05T16:00:36.997Z,6.01
2024-03-05T16:03:07.294Z,5.90
2024-03-05T16:05:43.275Z,6.01
2024-03-05T16:08:21.987Z,5.94
2024-03-05T16:10:49.956Z,5.82
2024-03-05T16:13:17.616Z,5.77
2024-03-05T16:15:46.900Z,5.81
2024-03-05T16:18:15.091Z,5.90
2024-03-05T16:20:42.925Z,5.90
2024-03-05T16:23:11.541Z,5.86
2024-03-05T16:25:41.601Z,5.73
2024-03-05T16:28:18.175Z,5.79
2024-03-05T16:30:45.306Z,5.72
2024-03-05T16:33:12.680Z,5.64
2024-03-05T16:35:39.817Z,5.43
2024-03-05T16:38:07.711Z,5.58
2024-03-05T16:40:37.155Z,5.76
2024-03-05T16:43:07.897Z,5.98
2024-03-05T16:45:36.602Z,6.49
2024-03-05T16:48:07.060Z,6.70
2024-03-05T16:50:34.785Z,6.88
2024-03-05T16:53:02.681Z,6.91
2024-03-05T16:55:30.448Z,6.99
2024-03-05T16:58:00.211Z,7.03
2024-03-05T17:00:35.343Z,5.96
2024-03-05T17:03:08.664Z,5.77
2024-03-05T17:05:38.146Z,5.51
2024-03-05T17:08:11.106Z,5.35
2024-03-05T17:10:40.642Z,5.15
2024-03-05T17:13:08.320Z,4.92
2024-03-05T17:15:42.016Z,4.86
2024-03-05T17:18:12.005Z,4.84
2024-03-05T17:20:39.248Z,4.84
2024-03-05T17:23:07.052Z,4.78
2024-03-05T17:25:39.725Z,4.83
2024-03-05T17:28:11.888Z,4.85
2024-03-05T17:30:40.906Z,4.93
2024-03-05T17:33:10.836Z,4.94
2024-03-05T17:35:40.784Z,5.18
2024-03-05T17:38:10.928Z,5.36
2024-03-05T17:40:39.181Z,5.56
2024-03-05T17:43:06.641Z,5.77
2024-03-05T17:45:33.757Z,6.06
2024-03-05T17:48:06.989Z,5.92
2024-03-05T17:50:38.108Z,5.98
2024-03-05T17:53:06.781Z,5.72
2024-03-05T17:55:35.854Z,5.84
2024-03-05T17:58:05.570Z,5.89
2024-03-05T18:00:45.300Z,5.86
2024-03-05T18:03:18.943Z,5.65
2024-03-05T18:05:46.934Z,5.92
2024-03-05T18:08:14.593Z,6.02
2024-03-05T18:10:42.592Z,6.19
2024-03-05T18:13:11.254Z,6.33
2024-03-05T18:15:38.359Z,6.43
2024-03-05T18:18:10.305Z,6.62
2024-03-05T18:20:38.865Z,6.75
2024-03-05T18:23:07.179Z,6.03
2024-03-05T18:25:37.626Z,5.89
2024-03-05T18:28:06.862Z,6.26
2024-03-05T18:30:38.829Z,5.72
2024-03-05T18:33:12.120Z,6.02
2024-03-05T18:35:41.966Z,6.29
2024-03-05T18:40:41.097Z,6.61
2024-03-05T18:43:10.755Z,6.49
2024-03-05T18:45:38.647Z,6.67
2024-03-05T18:48:10.476Z,6.88
2024-03-05T18:50:38.503Z,6.73
2024-03-05T18:53:08.684Z,6.67
2024-03-05T18:55:37.268Z,6.63
2024-03-05T18:58:07.555Z,6.75
2024-03-05T19:00:34.873Z,6.76
2024-03-05T19:03:02.289Z,6.67
2024-03-05T19:05:29.318Z,6.68
2024-03-05T19:07:56.363Z,6.78
2024-03-05T19:10:25.887Z,6.78
2024-03-05T19:12:54.856Z,6.91
2024-03-05T19:15:23.695Z,7.02
2024-03-05T19:17:51.056Z,7.02
2024-03-05T19:20:18.454Z,7.14
2024-03-05T19:22:45.881Z,7.07
2024-03-05T19:25:13.584Z,6.76
2024-03-05T19:27:43.175Z,6.76
2024-03-05T19:30:12.809Z,6.66
2024-03-05T19:32:40.374Z,6.77
2024-03-05T19:35:11.403Z,6.70
2024-03-05T19:37:41.482Z,6.55
2024-03-05T19:40:16.081Z,6.72
2024-03-05T19:42:47.219Z,6.90
2024-03-05T19:45:14.755Z,6.99
2024-03-05T19:47:42.361Z,6.99
2024-03-05T19:50:14.658Z,6.85
2024-03-05T19:52:42.638Z,6.95
2024-03-05T19:55:10.558Z,6.72
2024-03-05T19:57:38.194Z,6.73
2024-03-05T20:00:18.531Z,6.88
2024-03-05T20:02:48.199Z,6.97
2024-03-05T20:05:15.962Z,6.78
2024-03-05T20:07:43.166Z,6.82
2024-03-05T20:10:11.063Z,6.85
2024-03-05T20:12:39.449Z,6.88
2024-03-05T20:15:14.660Z,6.66
2024-03-05T20:17:43.765Z,6.39
2024-03-05T20:20:16.837Z,6.48
2024-03-05T20:22:48.313Z,6.81
2024-03-05T20:25:19.253Z,6.77
2024-03-05T20:27:53.288Z,6.83
2024-03-05T20:30:23.498Z,6.75
2024-03-05T20:32:51.635Z,6.85
2024-03-05T20:35:24.159Z,6.92
2024-03-05T20:37:52.329Z,6.84
2024-03-05T20:40:22.634Z,6.95
2024-03-05T20:42:50.106Z,7.02
2024-03-05T20:45:18.294Z,7.05
2024-03-05T20:47:47.514Z,6.69
2024-03-05T20:50:15.370Z,6.72
2024-03-05T20:52:42.909Z,6.53
2024-03-05T20:55:10.234Z,6.53
2024-03-05T20:57:38.679Z,6.59
2024-03-05T21:00:12.785Z,6.68
2024-03-05T21:02:41.382Z,6.58
2024-03-05T21:05:12.315Z,6.48
2024-03-05T21:07:40.521Z,6.56
2024-03-05T21:10:11.289Z,6.70
2024-03-05T21:12:40.067Z,6.45
2024-03-05T21:15:13.482Z,6.76
2024-03-05T21:17:41.953Z,6.70
2024-03-05T21:20:12.831Z,6.76
2024-03-05T21:22:43.113Z,6.80
2024-03-05T21:25:11.125Z,6.84
2024-03-05T21:27:40.177Z,6.78
2024-03-05T21:30:09.856Z,6.86
2024-03-05T21:32:37.361Z,6.70
2024-03-05T21:35:09.493Z,6.53
2024-03-05T21:37:41.331Z,6.57
2024-03-05T21:40:14.061Z,6.43
2024-03-05T21:42:42.578Z,6.34
2024-03-05T21:45:12.787Z,6.53
2024-03-05T21:47:39.904Z,6.56
2024-03-05T21:50:08.777Z,6.50
2024-03-05T21:52:37.467Z,6.30
2024-03-05T21:55:08.186Z,6.25
2024-03-05T21:57:40.089Z,6.32
2024-03-05T22:00:12.913Z,6.21
2024-03-05T22:02:41.038Z,6.27
2024-03-05T22:05:10.121Z,6.25
2024-03-05T22:07:38.648Z,6.14
2024-03-05T22:10:07.722Z,6.22
2024-03-05T22:12:38.203Z,6.18
2024-03-05T22:15:06.331Z,6.27
2024-03-05T22:17:34.373Z,6.28
2024-03-05T22:20:01.471Z,6.41
2024-03-05T22:22:28.801Z,6.32
2024-03-05T22:24:58.048Z,6.43
2024-03-05T22:27:25.144Z,6.48
2024-03-05T22:29:52.313Z,6.58
2024-03-05T22:32:19.580Z,6.37
2024-03-05T22:34:46.720Z,6.46
2024-03-05T22:37:15.106Z,6.28
2024-03-05T22:39:42.269Z,6.24
2024-03-05T22:42:11.082Z,6.39
2024-03-05T22:44:39.413Z,6.39
2024-03-05T22:47:07.132Z,6.20
2024-03-05T22:49:34.502Z,6.32
2024-03-05T22:52:01.866Z,6.26
2024-03-05T22:54:29.094Z,6.21
2024-03-05T22:56:56.136Z,6.22
2024-03-05T22:59:24.664Z,6.06
2024-03-05T23:01:51.739Z,6.13
2024-03-05T23:04:19.853Z,6.11
2024-03-05T23:06:48.734Z,5.97
2024-03-05T23:09:16.646Z,6.17
2024-03-05T23:11:46.640Z,6.18
2024-03-05T23:14:15.323Z,6.34
2024-03-05T23:16:43.904Z,6.25
2024-03-05T23:19:12.407Z,6.02
2024-03-05T23:21:40.353Z,6.11
2024-03-05T23:24:10.198Z,5.98
2024-03-05T23:26:37.619Z,5.93
2024-03-05T23:29:04.866Z,6.18
2024-03-05T23:31:32.065Z,6.10
2024-03-05T23:34:01.066Z,6.21
2024-03-05T23:36:28.127Z,6.02
2024-03-05T23:38:55.293Z,5.80
2024-03-05T23:41:29.094Z,5.96
2024-03-05T23:43:59.871Z,5.88
2024-03-05T23:46:26.992Z,5.74
2024-03-05T23:48:54.086Z,5.66
2024-03-05T23:51:22.510Z,5.37
2024-03-05T23:53:49.570Z,5.49
2024-03-05T23:56:16.940Z,5.69
2024-03-05T23:58:44.239Z,5.67
